Main page
METAR-TAF:

METAR-TAF

Airports :

Yakutsk, Russia

Yakutsk Airport

latitude: 62-01N, longitude: 129-43E, elevation: 103 m

Current weather observation

The report was made 33 minutes ago, at 15:00 UTC
Calm wind
Temperature -42°C
Humidity 64%
Pressure 1026 hPa
Visibility: 0200 m
fog

METAR: UEEE 231500Z 00000MPS 0300 0200SW R23L/0900N FG NSC M42/M46 Q1026 R23L/490150 NOSIG RMK QFE761

Time: 00:33 (15:33 UTC)

Forecast

The report was made 1 hour and 33 minutes ago, at 14:00 UTC
Forecast valid from 23 at 15 UTC to 24 at 21 UTC
Wind 2 kt from variable directions
Visibility: 0300 m
at a height of 300 ft
fog
Temporary
from 23 at 15 UTC to 24 at 06 UTC
Visibility: 1000 m
mist

TAF: UEEE 231400Z 2315/2421 VRB01MPS 0300 FG VV003 TXM37/2405Z TNM43/2321Z TEMPO 2315/2406 1000 BR NSC

Weather observations and forecasts of more than 4000 airports (METAR and TAF reports).

The available stations are represented by yellow and red dots on the map.

Hover mouse over dot to see the name of the station.

Then click to see weather observations and forecasts.

To change the map : click on the green buttons with a black cross to zoom in, on the green button with a dash to zoom out, or on the green arrows for adjacent maps.


METAR-TAF: